Time;durP1;ratioP1;P1;durP2;ratioP2;P2;SDS_P1;SDS_P2;PMS_P1;PMS_P2;Temp;Humidity;BMP_temperature;BMP_pressure;BME280_temperature;BME280_humidity;BME280_pressure;Samples;Min_cycle;Max_cycle;Signal;HPM_P1;HPM_P2
2023/09/30 00:00:59;;;;;;;25.75;6.22;;;13.20;99.90;;;;;;5053335;28;20195;-69
2023/09/30 00:03:25;;;;;;;23.80;6.80;;;13.20;99.90;;;;;;5052177;28;20211;-69
2023/09/30 00:05:51;;;;;;;20.20;6.35;;;13.20;99.90;;;;;;5053456;28;20226;-69
2023/09/30 00:08:17;;;;;;;22.48;5.88;;;13.20;99.90;;;;;;5039189;28;20732;-71
2023/09/30 00:10:43;;;;;;;26.23;6.93;;;13.20;99.90;;;;;;5053625;28;20270;-68
2023/09/30 00:13:09;;;;;;;23.20;6.40;;;13.20;99.90;;;;;;5053109;28;20213;-68
2023/09/30 00:15:35;;;;;;;23.00;6.53;;;13.20;99.90;;;;;;5052066;28;20215;-69
2023/09/30 00:18:01;;;;;;;21.35;5.85;;;13.20;99.90;;;;;;5050187;28;20226;-70
2023/09/30 00:20:30;;;;;;;16.85;5.82;;;13.10;99.90;;;;;;5051706;28;20187;-68
2023/09/30 00:22:56;;;;;;;18.98;5.50;;;13.10;99.90;;;;;;5052042;28;20241;-70
2023/09/30 00:25:21;;;;;;;25.27;5.97;;;13.10;99.90;;;;;;5031929;28;20196;-71
2023/09/30 00:27:48;;;;;;;20.23;5.47;;;13.10;99.90;;;;;;5049321;28;20183;-69
2023/09/30 00:30:14;;;;;;;18.90;5.38;;;13.10;99.90;;;;;;5052803;28;20696;-69
2023/09/30 00:32:40;;;;;;;28.25;6.40;;;13.10;99.90;;;;;;5052353;28;20210;-69
2023/09/30 00:35:11;;;;;;;31.02;6.07;;;13.10;99.90;;;;;;5052702;28;20654;-69
2023/09/30 00:37:38;;;;;;;23.25;5.55;;;13.10;99.90;;;;;;5052375;28;20211;-69
2023/09/30 00:40:05;;;;;;;18.77;5.60;;;13.10;99.90;;;;;;5044598;28;20180;-70
2023/09/30 00:42:31;;;;;;;21.05;5.05;;;13.10;99.90;;;;;;5039384;28;20179;-69
2023/09/30 00:44:57;;;;;;;21.02;5.82;;;13.10;99.90;;;;;;5052259;28;20183;-69
2023/09/30 00:47:24;;;;;;;21.50;5.68;;;13.10;99.90;;;;;;5052619;28;20651;-69
2023/09/30 00:49:51;;;;;;;19.92;5.13;;;13.10;99.90;;;;;;5051437;28;20278;-69
2023/09/30 00:52:18;;;;;;;15.40;5.25;;;13.10;99.90;;;;;;5051706;28;20195;-68
2023/09/30 00:54:46;;;;;;;23.10;5.78;;;13.10;99.90;;;;;;5034267;28;20270;-70
2023/09/30 00:57:12;;;;;;;18.45;5.68;;;13.10;99.90;;;;;;5051731;28;20238;-70
2023/09/30 00:59:40;;;;;;;19.58;5.28;;;13.10;99.90;;;;;;5047897;28;20184;-69
2023/09/30 01:02:07;;;;;;;17.58;5.15;;;13.10;99.90;;;;;;5050097;28;20302;-71
2023/09/30 01:04:33;;;;;;;27.88;5.80;;;13.10;99.90;;;;;;5051004;28;20191;-70
2023/09/30 01:06:59;;;;;;;25.73;6.00;;;13.10;99.90;;;;;;5049989;28;20175;-70
2023/09/30 01:09:27;;;;;;;19.50;6.32;;;13.10;99.90;;;;;;5049888;28;20191;-69
2023/09/30 01:11:53;;;;;;;23.15;6.88;;;13.10;99.90;;;;;;5046906;28;20207;-69
2023/09/30 01:14:26;;;;;;;25.60;6.82;;;13.10;99.90;;;;;;5044205;28;20627;-70
2023/09/30 01:16:53;;;;;;;19.50;6.43;;;13.10;99.90;;;;;;5040140;28;20179;-70
2023/09/30 01:19:20;;;;;;;22.00;6.32;;;13.10;99.90;;;;;;5050358;28;20208;-70
2023/09/30 01:21:48;;;;;;;26.40;6.15;;;13.10;99.90;;;;;;5046072;28;20188;-69
2023/09/30 01:24:15;;;;;;;19.27;6.05;;;13.10;99.90;;;;;;5046688;28;20659;-69
2023/09/30 01:26:43;;;;;;;27.15;6.43;;;13.10;99.90;;;;;;5050894;28;20706;-69
2023/09/30 01:29:10;;;;;;;19.98;5.90;;;13.10;99.90;;;;;;5049968;28;20187;-69
2023/09/30 01:31:38;;;;;;;25.02;6.97;;;13.10;99.90;;;;;;5022543;28;20188;-70
2023/09/30 01:34:04;;;;;;;19.67;6.88;;;13.10;99.90;;;;;;5031969;28;20225;-69
2023/09/30 01:36:31;;;;;;;24.13;7.38;;;13.10;99.90;;;;;;5051506;28;20225;-69
2023/09/30 01:38:57;;;;;;;28.65;7.68;;;13.10;99.90;;;;;;5050036;28;20235;-70
2023/09/30 01:41:24;;;;;;;21.73;6.57;;;13.00;99.90;;;;;;5049614;28;20333;-69
2023/09/30 01:43:49;;;;;;;24.17;7.03;;;13.10;99.90;;;;;;5051164;28;20196;-69
2023/09/30 01:46:16;;;;;;;23.88;7.15;;;13.10;99.90;;;;;;5050633;28;20179;-68
2023/09/30 01:48:42;;;;;;;19.40;6.13;;;13.10;99.90;;;;;;5050211;28;20183;-69
2023/09/30 01:51:07;;;;;;;25.40;7.32;;;13.00;99.90;;;;;;5048495;28;20190;-70
2023/09/30 01:53:33;;;;;;;20.13;7.10;;;13.10;99.90;;;;;;5043556;28;20184;-69
2023/09/30 01:55:59;;;;;;;21.23;6.82;;;13.10;99.90;;;;;;5045593;28;20183;-69
2023/09/30 01:58:26;;;;;;;18.98;7.05;;;13.10;99.90;;;;;;5048662;28;20296;-69
2023/09/30 02:00:52;;;;;;;24.27;6.68;;;13.10;99.90;;;;;;5040136;28;20277;-69
2023/09/30 02:03:18;;;;;;;25.52;6.10;;;13.10;99.90;;;;;;5045514;28;20198;-69
2023/09/30 02:05:44;;;;;;;21.10;5.60;;;13.00;99.90;;;;;;5049774;28;20565;-70
2023/09/30 02:08:10;;;;;;;17.80;5.50;;;13.00;99.90;;;;;;5051223;28;20264;-69
2023/09/30 02:10:36;;;;;;;18.98;5.95;;;13.00;99.90;;;;;;5050281;28;20203;-69
2023/09/30 02:13:05;;;;;;;17.50;5.18;;;13.00;99.90;;;;;;5048338;28;20189;-69
2023/09/30 02:15:32;;;;;;;22.75;6.00;;;13.00;99.90;;;;;;5044931;28;20191;-69
2023/09/30 02:18:00;;;;;;;20.98;5.82;;;13.00;99.90;;;;;;5049966;28;20234;-70
2023/09/30 02:20:30;;;;;;;20.80;5.60;;;13.00;99.90;;;;;;5048094;28;20183;-68
2023/09/30 02:22:57;;;;;;;24.67;6.07;;;13.00;99.90;;;;;;5048499;28;20644;-69
2023/09/30 02:25:23;;;;;;;16.27;5.30;;;13.00;99.90;;;;;;5051032;28;20191;-71
2023/09/30 02:27:51;;;;;;;16.40;6.05;;;13.00;99.90;;;;;;5050650;28;20213;-69
2023/09/30 02:30:17;;;;;;;19.13;5.93;;;13.10;99.90;;;;;;5051205;28;20222;-68
2023/09/30 02:32:46;;;;;;;20.17;5.57;;;13.00;99.90;;;;;;5049272;28;20187;-69
2023/09/30 02:35:12;;;;;;;21.17;5.68;;;13.10;99.90;;;;;;5042956;28;20189;-70
2023/09/30 02:37:38;;;;;;;15.35;5.25;;;13.00;99.90;;;;;;5049423;28;20215;-69
2023/09/30 02:40:09;;;;;;;17.60;5.72;;;13.10;99.90;;;;;;5050880;28;20187;-70
2023/09/30 02:42:39;;;;;;;24.27;5.63;;;13.10;99.90;;;;;;5050095;28;20249;-69
2023/09/30 02:45:07;;;;;;;14.70;5.28;;;13.10;99.90;;;;;;5048622;28;20312;-69
2023/09/30 02:47:38;;;;;;;15.48;5.05;;;13.20;99.90;;;;;;5038526;28;20179;-69
2023/09/30 02:50:08;;;;;;;14.38;5.25;;;13.10;99.90;;;;;;5050468;28;20179;-69
2023/09/30 02:52:34;;;;;;;20.17;5.60;;;13.10;99.90;;;;;;5050346;28;20187;-69
2023/09/30 02:55:03;;;;;;;16.17;5.25;;;13.10;99.90;;;;;;5046217;28;20218;-69
2023/09/30 02:57:30;;;;;;;20.63;5.95;;;13.10;99.90;;;;;;5039971;28;20230;-69
2023/09/30 02:59:56;;;;;;;17.40;5.32;;;13.10;99.90;;;;;;5040340;28;20195;-70
2023/09/30 03:02:22;;;;;;;17.45;5.20;;;13.20;99.90;;;;;;5046796;28;20195;-68
2023/09/30 03:04:51;;;;;;;17.70;5.57;;;13.20;99.90;;;;;;5042330;28;20183;-71
2023/09/30 03:07:19;;;;;;;19.30;5.30;;;13.20;99.90;;;;;;5024104;28;20533;-69
2023/09/30 03:09:46;;;;;;;19.73;5.85;;;13.20;99.90;;;;;;5035570;28;20182;-70
2023/09/30 03:12:13;;;;;;;15.85;5.13;;;13.20;99.90;;;;;;5035475;28;20269;-70
2023/09/30 03:14:40;;;;;;;18.33;5.47;;;13.20;99.90;;;;;;5043670;28;20202;-71
2023/09/30 03:17:11;;;;;;;18.33;5.50;;;13.20;99.90;;;;;;5056375;28;20969;-68
2023/09/30 03:19:38;;;;;;;14.05;4.93;;;13.20;99.90;;;;;;5041405;28;20219;-69
2023/09/30 03:22:10;;;;;;;16.75;5.18;;;13.20;99.90;;;;;;5054154;28;20197;-69
2023/09/30 03:24:38;;;;;;;20.38;5.55;;;13.20;99.90;;;;;;5052982;28;20636;-69
2023/09/30 03:27:04;;;;;;;20.35;5.38;;;13.10;99.90;;;;;;5053159;28;20191;-69
2023/09/30 03:29:30;;;;;;;19.58;4.72;;;13.10;99.90;;;;;;5048850;28;20464;-70
2023/09/30 03:31:56;;;;;;;15.90;5.30;;;13.10;99.90;;;;;;5051030;28;20205;-69
2023/09/30 03:34:22;;;;;;;17.38;5.20;;;13.10;99.90;;;;;;5054143;28;20252;-70
2023/09/30 03:36:49;;;;;;;21.05;5.75;;;13.10;99.90;;;;;;5054577;28;20237;-70
2023/09/30 03:39:15;;;;;;;21.45;5.13;;;13.10;99.90;;;;;;5052277;28;20215;-70
2023/09/30 03:41:41;;;;;;;16.20;5.30;;;13.10;99.90;;;;;;5053977;28;20210;-70
2023/09/30 03:44:08;;;;;;;17.73;5.18;;;13.00;99.90;;;;;;5052278;28;20179;-69
2023/09/30 03:46:34;;;;;;;17.85;5.80;;;13.00;99.90;;;;;;5053614;28;20190;-69
2023/09/30 03:49:00;;;;;;;17.08;5.32;;;13.00;99.90;;;;;;5052846;28;20183;-69
2023/09/30 03:51:26;;;;;;;12.05;5.35;;;13.00;99.90;;;;;;5042137;28;20246;-69
2023/09/30 03:53:52;;;;;;;20.08;5.43;;;13.00;99.90;;;;;;5052834;28;20183;-68
2023/09/30 03:56:18;;;;;;;21.92;5.22;;;13.00;99.90;;;;;;5053342;28;20197;-68
2023/09/30 03:58:44;;;;;;;18.75;4.85;;;13.00;99.90;;;;;;5052866;28;20235;-69
2023/09/30 04:01:11;;;;;;;19.65;4.78;;;13.00;99.90;;;;;;5048917;28;20183;-69
2023/09/30 04:03:39;;;;;;;19.98;5.07;;;13.00;99.90;;;;;;5051485;28;20179;-69
2023/09/30 04:06:06;;;;;;;13.85;4.68;;;13.00;99.90;;;;;;5053403;28;20606;-68
2023/09/30 04:08:33;;;;;;;21.15;5.32;;;13.00;99.90;;;;;;5053120;28;20232;-70
2023/09/30 04:11:00;;;;;;;16.90;5.18;;;13.00;99.90;;;;;;5051334;28;20183;-69
2023/09/30 04:13:27;;;;;;;15.98;4.90;;;13.00;99.90;;;;;;5041976;28;20282;-69
2023/09/30 04:15:53;;;;;;;15.25;4.75;;;13.00;99.90;;;;;;5053725;28;20187;-69
2023/09/30 04:18:21;;;;;;;15.73;5.10;;;13.00;99.90;;;;;;5052739;28;20219;-69
2023/09/30 04:20:48;;;;;;;19.35;5.30;;;13.00;99.90;;;;;;5044465;28;20199;-69
2023/09/30 04:23:15;;;;;;;18.48;5.45;;;13.00;99.90;;;;;;5044910;28;20190;-69
2023/09/30 04:25:42;;;;;;;21.20;5.30;;;13.00;99.90;;;;;;5053128;28;20183;-69
2023/09/30 04:28:08;;;;;;;27.20;5.55;;;13.00;99.90;;;;;;5052376;28;20187;-68
2023/09/30 04:30:34;;;;;;;20.08;5.47;;;13.00;99.90;;;;;;5051802;28;20253;-70
2023/09/30 04:33:00;;;;;;;19.48;5.43;;;13.00;99.90;;;;;;5048675;28;20232;-68
2023/09/30 04:35:26;;;;;;;22.85;5.85;;;13.00;99.90;;;;;;5050796;28;20194;-67
2023/09/30 04:37:52;;;;;;;22.52;6.05;;;13.00;99.90;;;;;;5052121;28;20215;-69
2023/09/30 04:40:21;;;;;;;18.30;5.38;;;13.10;99.90;;;;;;5052376;28;20194;-68
2023/09/30 04:42:48;;;;;;;25.00;5.75;;;13.00;99.90;;;;;;5046844;28;20199;-68
2023/09/30 04:45:16;;;;;;;17.52;5.47;;;13.00;99.90;;;;;;5031119;28;20210;-68
2023/09/30 04:47:45;;;;;;;23.52;5.70;;;13.10;99.90;;;;;;5053548;28;20194;-68
2023/09/30 04:50:14;;;;;;;23.52;5.85;;;13.00;99.90;;;;;;5052440;28;20274;-68
2023/09/30 04:52:40;;;;;;;25.20;6.25;;;13.00;99.90;;;;;;5051125;28;20198;-68
2023/09/30 04:55:08;;;;;;;17.98;6.20;;;13.00;99.90;;;;;;5043208;28;20607;-70
2023/09/30 04:57:34;;;;;;;22.42;6.15;;;13.00;99.90;;;;;;5051248;28;20231;-68
2023/09/30 05:00:00;;;;;;;22.95;6.10;;;13.00;99.90;;;;;;5052347;28;20677;-69
2023/09/30 05:02:27;;;;;;;19.58;6.00;;;13.00;99.90;;;;;;5051350;28;20187;-69
2023/09/30 05:04:53;;;;;;;16.23;6.55;;;13.00;99.90;;;;;;5052740;28;20266;-70
2023/09/30 05:07:21;;;;;;;22.63;7.07;;;13.00;99.90;;;;;;5042925;28;20192;-69
2023/09/30 05:09:48;;;;;;;20.35;6.68;;;13.00;99.90;;;;;;5045875;28;20179;-70
2023/09/30 05:12:16;;;;;;;25.25;7.50;;;12.90;99.90;;;;;;5046835;28;20190;-68
2023/09/30 05:14:43;;;;;;;18.52;7.10;;;13.00;99.90;;;;;;5052012;28;20179;-71
2023/09/30 05:17:09;;;;;;;17.42;7.32;;;13.00;99.90;;;;;;5052312;28;20195;-70
2023/09/30 05:19:36;;;;;;;21.67;7.43;;;12.90;99.90;;;;;;5052231;28;20207;-69
2023/09/30 05:22:02;;;;;;;24.85;7.30;;;12.90;99.90;;;;;;5049880;28;20292;-69
2023/09/30 05:24:29;;;;;;;19.77;7.45;;;12.90;99.90;;;;;;5039544;28;20194;-70
2023/09/30 05:26:55;;;;;;;19.05;7.55;;;12.90;99.90;;;;;;5042875;28;20187;-68
2023/09/30 05:29:22;;;;;;;19.25;7.90;;;12.90;99.90;;;;;;5052196;28;20559;-70
2023/09/30 05:31:48;;;;;;;22.58;7.78;;;12.90;99.90;;;;;;5044986;28;20581;-70
2023/09/30 05:34:14;;;;;;;21.80;7.82;;;12.90;99.90;;;;;;5047009;28;20656;-70
2023/09/30 05:36:40;;;;;;;23.10;8.15;;;12.90;99.90;;;;;;5046579;28;20184;-70
2023/09/30 05:39:06;;;;;;;22.52;8.05;;;12.90;99.90;;;;;;5052131;28;20640;-69
2023/09/30 05:41:32;;;;;;;23.40;8.60;;;12.80;99.90;;;;;;5048526;28;20215;-69
2023/09/30 05:43:59;;;;;;;22.30;8.20;;;12.90;99.90;;;;;;5048926;28;20201;-70
2023/09/30 05:46:27;;;;;;;20.20;8.68;;;12.90;99.90;;;;;;5050584;28;20856;-70
2023/09/30 05:48:53;;;;;;;23.88;8.90;;;12.80;99.90;;;;;;5049076;28;20206;-70
2023/09/30 05:51:19;;;;;;;23.58;8.80;;;12.90;99.90;;;;;;5046064;28;20655;-69
2023/09/30 05:53:47;;;;;;;23.30;9.23;;;12.80;99.90;;;;;;5049052;28;20193;-68
2023/09/30 05:56:15;;;;;;;23.50;9.52;;;12.80;99.90;;;;;;5041768;28;20274;-69
2023/09/30 05:58:44;;;;;;;23.70;9.80;;;12.80;99.90;;;;;;5044698;28;20211;-66
2023/09/30 06:01:18;;;;;;;24.38;9.82;;;12.80;99.90;;;;;;5047529;28;20632;-66
2023/09/30 06:03:46;;;;;;;23.13;10.05;;;12.80;99.90;;;;;;5046518;28;20182;-69
2023/09/30 06:06:18;;;;;;;24.73;10.30;;;12.80;99.90;;;;;;5049544;28;20179;-68
2023/09/30 06:08:45;;;;;;;32.83;11.02;;;12.90;99.90;;;;;;5036540;28;20234;-68
2023/09/30 06:11:24;;;;;;;26.55;10.77;;;12.80;99.90;;;;;;5050977;28;20187;-68
2023/09/30 06:13:54;;;;;;;27.90;11.00;;;12.80;99.90;;;;;;5050545;28;20650;-67
2023/09/30 06:16:20;;;;;;;25.15;10.98;;;12.80;99.90;;;;;;5048195;28;20187;-68
2023/09/30 06:18:46;;;;;;;30.30;11.23;;;12.80;99.90;;;;;;5045913;28;20227;-68
2023/09/30 06:21:17;;;;;;;26.95;10.88;;;12.80;99.90;;;;;;5051359;28;20207;-69
2023/09/30 06:23:43;;;;;;;22.85;10.65;;;12.90;99.90;;;;;;5050454;28;20211;-69
2023/09/30 06:26:10;;;;;;;26.83;10.98;;;12.80;99.90;;;;;;5049872;28;20215;-69
2023/09/30 06:28:40;;;;;;;27.30;11.40;;;12.90;99.90;;;;;;5042458;28;20639;-68
2023/09/30 06:31:10;;;;;;;24.17;10.90;;;12.90;99.90;;;;;;5044120;28;20221;-68
2023/09/30 06:33:38;;;;;;;27.00;11.65;;;12.90;99.90;;;;;;5047145;28;20202;-69
2023/09/30 06:36:13;;;;;;;26.88;11.02;;;12.90;99.90;;;;;;5050314;28;20184;-70
2023/09/30 06:38:41;;;;;;;22.55;10.55;;;13.00;99.90;;;;;;5047252;28;20214;-69
2023/09/30 06:41:08;;;;;;;20.83;10.63;;;13.00;99.90;;;;;;5051202;28;20183;-68
2023/09/30 06:43:35;;;;;;;26.27;11.10;;;13.00;99.90;;;;;;5049667;28;20555;-69
2023/09/30 06:46:09;;;;;;;27.33;10.70;;;13.10;99.90;;;;;;5051192;28;20191;-72
2023/09/30 06:48:36;;;;;;;25.88;10.43;;;13.10;99.90;;;;;;5043297;28;20274;-73
2023/09/30 06:51:01;;;;;;;23.13;9.70;;;13.10;99.90;;;;;;5050918;28;20187;-74
2023/09/30 06:53:27;;;;;;;28.73;10.27;;;13.20;99.90;;;;;;5054334;28;20183;-73
2023/09/30 06:55:53;;;;;;;26.17;10.45;;;13.20;99.90;;;;;;5055069;28;20218;-73
2023/09/30 06:58:23;;;;;;;20.65;10.05;;;13.30;99.90;;;;;;5033169;28;20223;-73
2023/09/30 07:00:55;;;;;;;22.92;10.05;;;13.40;99.90;;;;;;5045839;28;20187;-72
2023/09/30 07:03:21;;;;;;;25.35;10.07;;;13.40;99.90;;;;;;5053846;28;20198;-72
2023/09/30 07:05:50;;;;;;;25.67;10.13;;;13.50;99.90;;;;;;5036657;28;20210;-72
2023/09/30 07:08:21;;;;;;;22.52;9.75;;;13.50;99.90;;;;;;5051379;28;20188;-75
2023/09/30 07:10:49;;;;;;;24.95;9.15;;;13.60;99.90;;;;;;5047462;28;20198;-73
2023/09/30 07:13:18;;;;;;;20.73;9.75;;;13.70;99.90;;;;;;5056525;28;20269;-72
2023/09/30 07:15:44;;;;;;;24.95;9.48;;;13.80;99.90;;;;;;5047642;28;20179;-72
2023/09/30 07:18:11;;;;;;;26.00;9.80;;;13.80;99.90;;;;;;5062825;28;20741;-72
2023/09/30 07:20:40;;;;;;;17.30;8.98;;;13.90;99.90;;;;;;5053653;28;20711;-72
2023/09/30 07:23:08;;;;;;;22.38;8.80;;;14.00;99.90;;;;;;5053108;28;20199;-72
2023/09/30 07:25:34;;;;;;;21.88;8.38;;;14.00;99.90;;;;;;5054541;28;20198;-73
2023/09/30 07:28:01;;;;;;;17.75;8.38;;;14.10;99.90;;;;;;5054037;28;20187;-71
2023/09/30 07:30:27;;;;;;;28.40;8.80;;;14.10;99.90;;;;;;5053854;28;20194;-72
2023/09/30 07:32:53;;;;;;;21.58;8.65;;;14.20;99.90;;;;;;5052798;28;20558;-72
2023/09/30 07:35:19;;;;;;;17.05;8.48;;;14.20;99.90;;;;;;5053632;28;20195;-73
2023/09/30 07:37:45;;;;;;;22.42;8.23;;;14.30;99.90;;;;;;5047013;28;20215;-74
2023/09/30 07:40:12;;;;;;;27.65;9.13;;;14.30;99.90;;;;;;5053903;28;20230;-73
2023/09/30 07:42:38;;;;;;;22.95;8.35;;;14.30;99.90;;;;;;5036679;28;20186;-73
2023/09/30 07:45:04;;;;;;;18.02;8.68;;;14.40;99.90;;;;;;5053065;28;20179;-73
2023/09/30 07:47:33;;;;;;;23.45;8.85;;;14.40;99.90;;;;;;5049080;28;20197;-74
2023/09/30 07:50:02;;;;;;;27.02;9.63;;;14.50;99.90;;;;;;5059670;28;20643;-77
2023/09/30 07:52:28;;;;;;;19.88;8.77;;;14.50;99.90;;;;;;5044931;28;20184;-74
2023/09/30 07:54:54;;;;;;;21.27;8.77;;;14.60;99.90;;;;;;5051989;28;20198;-74
2023/09/30 07:57:20;;;;;;;23.10;8.65;;;14.60;99.90;;;;;;5054596;28;20440;-73
2023/09/30 07:59:46;;;;;;;22.55;8.75;;;14.60;99.90;;;;;;5044794;28;20223;-79
2023/09/30 08:02:12;;;;;;;20.55;8.30;;;14.70;99.90;;;;;;5043611;28;20198;-76
2023/09/30 08:04:38;;;;;;;23.55;8.90;;;14.80;99.90;;;;;;5046310;28;20195;-81
2023/09/30 08:07:04;;;;;;;20.35;8.50;;;14.80;99.90;;;;;;5051071;28;20638;-79
2023/09/30 08:09:30;;;;;;;20.23;7.95;;;14.90;99.90;;;;;;5054307;28;20191;-76
2023/09/30 08:11:56;;;;;;;18.27;7.57;;;14.90;99.90;;;;;;5054695;28;20183;-79
2023/09/30 08:14:22;;;;;;;17.67;7.82;;;15.00;99.90;;;;;;5045517;28;20694;-72
2023/09/30 08:16:49;;;;;;;25.58;7.95;;;15.10;99.90;;;;;;5055085;28;20179;-73
2023/09/30 08:19:15;;;;;;;18.65;7.70;;;15.10;99.90;;;;;;5050446;28;20683;-77
2023/09/30 08:21:41;;;;;;;20.77;8.10;;;15.20;99.90;;;;;;5052536;28;20241;-77
2023/09/30 08:24:08;;;;;;;17.08;7.57;;;15.30;99.90;;;;;;5053939;28;20195;-74
2023/09/30 08:26:35;;;;;;;18.45;7.53;;;15.30;99.90;;;;;;5046528;28;20184;-74
2023/09/30 08:29:02;;;;;;;20.25;7.47;;;15.40;99.90;;;;;;5042302;28;21602;-74
2023/09/30 08:31:28;;;;;;;22.38;7.47;;;15.50;99.90;;;;;;5049701;28;20188;-72
2023/09/30 08:33:54;;;;;;;16.20;6.63;;;15.50;99.90;;;;;;5052986;28;20202;-73
2023/09/30 08:36:20;;;;;;;21.33;7.05;;;15.60;99.90;;;;;;5053262;28;20543;-74
2023/09/30 08:38:46;;;;;;;16.50;6.20;;;15.70;99.90;;;;;;5051311;28;20211;-72
2023/09/30 08:41:45;;;;;;;19.58;5.35;;;15.80;99.90;;;;;;5044743;28;20187;-73
2023/09/30 08:44:12;;;;;;;18.65;5.97;;;15.90;99.90;;;;;;5044894;28;20199;-72
2023/09/30 08:46:40;;;;;;;18.13;5.57;;;16.00;99.90;;;;;;5045853;28;20275;-71
2023/09/30 08:49:06;;;;;;;15.70;5.30;;;16.10;99.90;;;;;;5052611;28;20190;-73
2023/09/30 08:51:33;;;;;;;16.20;5.85;;;16.20;99.90;;;;;;5052760;28;20183;-72
2023/09/30 08:54:01;;;;;;;16.83;5.20;;;16.30;99.90;;;;;;5049031;28;20682;-73
2023/09/30 08:56:29;;;;;;;17.42;5.20;;;16.40;99.90;;;;;;5038163;28;20188;-72
2023/09/30 08:58:58;;;;;;;22.20;5.72;;;16.50;99.90;;;;;;5050165;28;20256;-71
2023/09/30 09:01:25;;;;;;;14.50;4.82;;;16.60;99.90;;;;;;5051707;28;20210;-72
2023/09/30 09:03:52;;;;;;;19.42;5.03;;;16.70;99.90;;;;;;5038296;28;20218;-72
2023/09/30 09:06:25;;;;;;;22.65;5.13;;;16.80;99.90;;;;;;5038108;28;20188;-70
2023/09/30 09:08:52;;;;;;;13.65;4.65;;;16.80;99.90;;;;;;5052451;28;20278;-72
2023/09/30 09:11:18;;;;;;;13.82;5.30;;;16.90;99.90;;;;;;5046407;28;20184;-72
2023/09/30 09:13:55;;;;;;;13.40;4.22;;;17.00;99.90;;;;;;5044739;28;20194;-74
2023/09/30 09:16:22;;;;;;;16.95;5.32;;;17.00;99.90;;;;;;5045584;28;20182;-71
2023/09/30 09:18:49;;;;;;;16.60;4.53;;;17.10;99.90;;;;;;5044351;28;20230;-73
2023/09/30 09:21:17;;;;;;;16.60;4.65;;;17.10;99.90;;;;;;5043376;28;20183;-71
2023/09/30 09:23:46;;;;;;;16.45;4.70;;;17.20;99.90;;;;;;5048187;28;20175;-73
2023/09/30 09:26:34;;;;;;;12.00;4.28;;;17.20;99.90;;;;;;5050157;28;20187;-72
2023/09/30 09:29:03;;;;;;;13.25;4.47;;;17.30;99.90;;;;;;5046101;28;20720;-71
2023/09/30 09:31:34;;;;;;;14.15;4.35;;;17.30;99.90;;;;;;5047198;28;20187;-72
2023/09/30 09:34:01;;;;;;;17.58;4.63;;;17.40;99.90;;;;;;5050409;28;20654;-72
2023/09/30 09:36:43;;;;;;;14.40;4.47;;;17.40;99.90;;;;;;5041901;28;20279;-71
2023/09/30 09:39:13;;;;;;;15.02;4.40;;;17.50;99.90;;;;;;5048503;28;20267;-72
2023/09/30 09:41:52;;;;;;;17.80;5.00;;;17.50;99.90;;;;;;5049085;28;20236;-71
2023/09/30 09:44:22;;;;;;;17.77;5.47;;;17.50;99.90;;;;;;5039323;28;20206;-72
2023/09/30 09:46:52;;;;;;;16.10;4.38;;;17.60;99.90;;;;;;5045371;28;20286;-73
2023/09/30 09:49:19;;;;;;;17.75;4.50;;;17.60;99.90;;;;;;5051678;28;20187;-72
2023/09/30 09:51:51;;;;;;;15.95;5.00;;;17.70;99.90;;;;;;5051158;28;20202;-74
2023/09/30 09:54:18;;;;;;;14.15;4.47;;;17.80;99.90;;;;;;5048189;28;20652;-71
2023/09/30 09:56:48;;;;;;;14.73;4.25;;;17.80;99.90;;;;;;5043569;28;20288;-75
2023/09/30 09:59:14;;;;;;;14.85;4.93;;;17.90;99.90;;;;;;5040345;28;20221;-73
2023/09/30 10:01:41;;;;;;;14.15;4.03;;;18.00;99.90;;;;;;5051070;28;20183;-71
2023/09/30 10:04:08;;;;;;;11.93;3.78;;;18.10;99.90;;;;;;5050684;28;20360;-74
2023/09/30 10:06:39;;;;;;;12.93;4.40;;;18.20;99.90;;;;;;5037995;28;20263;-72
2023/09/30 10:09:11;;;;;;;20.33;4.60;;;18.40;99.90;;;;;;5050782;28;20192;-70
2023/09/30 10:11:39;;;;;;;13.90;4.72;;;18.60;99.90;;;;;;5049777;28;20186;-72
2023/09/30 10:14:11;;;;;;;12.73;3.78;;;18.70;99.90;;;;;;5050399;28;20671;-70
2023/09/30 10:16:37;;;;;;;11.70;3.45;;;18.80;99.90;;;;;;5039408;28;20279;-71
2023/09/30 10:19:10;;;;;;;14.40;3.20;;;18.80;99.90;;;;;;5042862;28;20298;-73
2023/09/30 10:21:36;;;;;;;15.88;3.20;;;18.90;99.90;;;;;;5029383;28;20212;-71
2023/09/30 10:24:24;;;;;;;13.18;3.33;;;18.80;99.90;;;;;;5043631;28;20190;-72
2023/09/30 10:27:24;;;;;;;12.07;3.15;;;18.90;99.90;;;;;;5039442;28;20716;-73
2023/09/30 10:30:05;;;;;;;8.48;2.65;;;19.00;99.90;;;;;;5039208;28;20171;-71
2023/09/30 10:32:50;;;;;;;10.90;2.63;;;19.00;99.90;;;;;;5051797;28;20191;-74
2023/09/30 10:35:36;;;;;;;14.75;3.10;;;19.00;99.90;;;;;;5050086;28;20313;-72
2023/09/30 10:38:27;;;;;;;18.50;2.90;;;19.00;99.90;;;;;;5037980;28;20238;-75
2023/09/30 10:40:54;;;;;;;12.40;2.97;;;19.00;99.90;;;;;;5047835;28;20278;-72
2023/09/30 10:43:33;;;;;;;13.63;2.92;;;19.00;99.90;;;;;;5050162;28;20183;-72
2023/09/30 10:46:00;;;;;;;9.88;2.30;;;19.20;99.90;;;;;;5038971;28;20643;-72
2023/09/30 10:48:32;;;;;;;9.23;2.40;;;19.30;99.90;;;;;;5038994;28;20241;-72
2023/09/30 10:51:11;;;;;;;13.00;2.67;;;19.30;99.90;;;;;;5045203;28;20198;-72
2023/09/30 10:53:43;;;;;;;9.32;2.45;;;19.40;99.90;;;;;;5045615;28;20176;-72
2023/09/30 10:56:09;;;;;;;10.23;2.90;;;19.50;99.90;;;;;;5031264;28;20261;-72
2023/09/30 10:58:46;;;;;;;12.18;2.80;;;19.60;99.90;;;;;;5046126;28;20273;-70
2023/09/30 11:01:14;;;;;;;8.75;2.38;;;19.70;99.90;;;;;;5050349;28;20194;-73
2023/09/30 11:03:41;;;;;;;12.05;2.50;;;19.80;99.90;;;;;;5039097;28;20183;-71
2023/09/30 11:06:13;;;;;;;10.02;2.60;;;19.90;99.90;;;;;;5049835;28;20183;-71
2023/09/30 11:08:45;;;;;;;6.85;2.20;;;20.10;99.90;;;;;;5041152;28;20194;-71
2023/09/30 11:11:12;;;;;;;12.25;2.80;;;20.20;99.90;;;;;;5050921;28;20774;-72
2023/09/30 11:13:38;;;;;;;9.73;2.67;;;20.30;99.90;;;;;;5040147;28;20180;-76
2023/09/30 11:16:05;;;;;;;11.07;2.40;;;20.30;99.90;;;;;;5046612;28;20195;-70
2023/09/30 11:18:31;;;;;;;15.95;2.60;;;20.40;99.90;;;;;;5050562;28;20211;-70
2023/09/30 11:21:15;;;;;;;9.68;2.70;;;20.30;99.90;;;;;;5049541;28;20176;-70
2023/09/30 11:23:41;;;;;;;11.20;2.22;;;20.30;99.90;;;;;;5039703;28;20172;-71
2023/09/30 11:26:07;;;;;;;7.60;2.33;;;20.30;99.90;;;;;;5043658;28;20179;-71
2023/09/30 11:28:41;;;;;;;8.35;1.90;;;20.20;99.90;;;;;;5047967;28;20269;-70
2023/09/30 11:31:18;;;;;;;8.10;2.35;;;20.30;99.90;;;;;;5049571;28;20236;-71
2023/09/30 11:33:52;;;;;;;7.68;2.08;;;20.30;99.90;;;;;;5050509;28;20183;-71
2023/09/30 11:36:20;;;;;;;14.00;3.00;;;20.10;99.90;;;;;;5048736;28;20178;-71
2023/09/30 11:38:48;;;;;;;8.98;1.92;;;20.10;99.90;;;;;;5048846;28;20225;-74
2023/09/30 11:41:13;;;;;;;7.45;2.13;;;20.00;99.90;;;;;;5053852;28;20183;-72
2023/09/30 11:43:57;;;;;;;18.40;2.30;;;19.90;99.90;;;;;;5052716;28;20573;-72
2023/09/30 11:46:27;;;;;;;11.63;2.30;;;19.80;99.90;;;;;;5039913;28;20690;-72
2023/09/30 11:49:08;;;;;;;10.40;2.22;;;19.80;99.90;;;;;;5040311;28;20187;-70
2023/09/30 11:51:46;;;;;;;8.93;2.50;;;19.80;99.90;;;;;;5052223;28;20190;-72
2023/09/30 11:54:14;;;;;;;9.60;2.15;;;19.70;99.90;;;;;;5051775;28;20274;-72
2023/09/30 11:56:40;;;;;;;10.38;2.35;;;19.60;99.90;;;;;;5047446;28;20231;-72
2023/09/30 11:59:06;;;;;;;10.40;2.63;;;19.60;99.90;;;;;;5045601;28;20230;-72
2023/09/30 12:01:33;;;;;;;9.88;2.50;;;19.60;99.90;;;;;;5053304;28;20659;-71
2023/09/30 12:03:59;;;;;;;10.85;2.60;;;19.50;99.90;;;;;;5053323;28;20309;-71
2023/09/30 12:06:25;;;;;;;8.10;2.20;;;19.50;99.90;;;;;;5051942;28;20273;-73
2023/09/30 12:08:51;;;;;;;13.73;2.42;;;19.50;99.90;;;;;;5043104;28;20543;-71
2023/09/30 12:11:18;;;;;;;12.43;2.13;;;19.50;99.90;;;;;;5048181;28;20183;-71
2023/09/30 12:13:44;;;;;;;11.90;2.63;;;19.50;99.90;;;;;;5052726;28;20183;-71
2023/09/30 12:16:14;;;;;;;12.32;5.72;;;19.50;99.90;;;;;;5052750;28;20663;-70
2023/09/30 12:18:41;;;;;;;13.40;2.53;;;19.50;99.90;;;;;;5050646;28;20215;-70
2023/09/30 12:21:10;;;;;;;12.40;2.38;;;19.60;99.90;;;;;;5053121;28;20203;-63
2023/09/30 12:23:37;;;;;;;10.05;2.60;;;19.60;99.90;;;;;;5052180;28;20183;-63
2023/09/30 12:26:05;;;;;;;10.20;2.10;;;19.70;99.90;;;;;;5053151;28;20568;-62
2023/09/30 12:28:32;;;;;;;9.50;2.75;;;19.80;99.90;;;;;;5049667;28;20202;-64
2023/09/30 12:31:04;;;;;;;8.30;2.50;;;19.80;99.90;;;;;;5041680;28;20282;-62
2023/09/30 12:33:32;;;;;;;9.75;2.10;;;19.90;99.90;;;;;;5032348;28;20279;-65
2023/09/30 12:35:58;;;;;;;12.35;2.30;;;19.90;99.90;;;;;;5050266;28;20604;-65
2023/09/30 12:38:28;;;;;;;9.23;2.35;;;20.00;99.90;;;;;;5047488;28;20215;-65
2023/09/30 12:40:57;;;;;;;9.43;2.17;;;20.00;99.90;;;;;;5040165;28;20231;-64